TimeCDT,TemperatureF,Dew PointF,Humidity,Sea Level PressureIn,VisibilityMPH,Wind Direction,Wind SpeedMPH,Gust SpeedMPH,PrecipitationIn,Events,Conditions,WindDirDegrees,DateUTC
12:53 AM,34.0,28.0,79,30.41,10.0,NNW,4.6,-,N/A,,Clear,330,2013-05-03 05:53:00
1:53 AM,39.9,28.9,65,30.40,10.0,North,10.4,-,N/A,,Clear,350,2013-05-03 06:53:00
2:53 AM,41.0,28.9,62,30.38,10.0,NW,6.9,-,N/A,,Clear,320,2013-05-03 07:53:00
3:53 AM,37.9,28.9,70,30.37,10.0,WNW,5.8,-,N/A,,Clear,300,2013-05-03 08:53:00
4:53 AM,37.0,28.0,70,30.36,10.0,NW,5.8,-,N/A,,Clear,310,2013-05-03 09:53:00
5:53 AM,32.0,28.0,85,30.35,10.0,WSW,5.8,-,N/A,,Clear,250,2013-05-03 10:53:00
6:53 AM,30.0,27.0,88,30.35,10.0,WSW,5.8,-,N/A,,Clear,240,2013-05-03 11:53:00
7:53 AM,39.0,30.9,73,30.35,10.0,West,4.6,-,N/A,,Clear,280,2013-05-03 12:53:00
8:53 AM,52.0,28.9,41,30.33,10.0,NNW,12.7,-,N/A,,Clear,340,2013-05-03 13:53:00
9:53 AM,54.0,28.0,37,30.33,10.0,NW,10.4,17.3,N/A,,Clear,320,2013-05-03 14:53:00
10:53 AM,55.9,26.1,32,30.30,10.0,NW,11.5,19.6,N/A,,Clear,310,2013-05-03 15:53:00
11:53 AM,60.1,28.0,30,30.28,10.0,NNW,16.1,25.3,N/A,,Clear,340,2013-05-03 16:53:00
12:53 PM,60.1,27.0,28,30.24,10.0,NW,11.5,21.9,N/A,,Mostly Cloudy,320,2013-05-03 17:53:00
1:53 PM,61.0,21.9,22,30.19,10.0,NW,18.4,27.6,N/A,,Mostly Cloudy,320,2013-05-03 18:53:00
2:53 PM,64.9,23.0,20,30.16,10.0,NNW,13.8,24.2,N/A,,Partly Cloudy,340,2013-05-03 19:53:00
4:53 PM,66.9,24.1,20,30.06,10.0,NNW,11.5,18.4,N/A,,Clear,330,2013-05-03 21:53:00
5:53 PM,66.9,23.0,19,30.05,10.0,NNW,8.1,-,N/A,,Clear,340,2013-05-03 22:53:00
6:53 PM,66.0,24.1,20,30.03,10.0,North,9.2,-,N/A,,Clear,350,2013-05-03 23:53:00
7:53 PM,61.0,27.0,27,30.02,10.0,NNE,6.9,-,N/A,,Clear,30,2013-05-04 00:53:00
8:53 PM,54.0,30.9,41,30.03,10.0,ENE,3.5,-,N/A,,Clear,60,2013-05-04 01:53:00
9:53 PM,48.9,30.9,50,30.04,10.0,ENE,6.9,-,N/A,,Clear,60,2013-05-04 02:53:00
10:53 PM,46.0,32.0,58,30.05,10.0,Calm,Calm,-,N/A,,Clear,0,2013-05-04 03:53:00
11:53 PM,39.9,34.0,79,30.04,10.0,Calm,Calm,-,N/A,,Clear,0,2013-05-04 04:53:00